createdAt,value
2023-05-10T00:00:40.760Z,6.50
2023-05-10T00:03:07.708Z,6.80
2023-05-10T00:05:34.614Z,8.77
2023-05-10T00:08:01.476Z,6.88
2023-05-10T00:10:28.382Z,6.72
2023-05-10T00:12:55.435Z,7.00
2023-05-10T00:15:22.480Z,7.18
2023-05-10T00:17:49.642Z,5.40
2023-05-10T00:20:16.952Z,4.65
2023-05-10T00:22:44.049Z,5.50
2023-05-10T00:25:11.681Z,5.35
2023-05-10T00:27:38.565Z,6.40
2023-05-10T00:30:06.057Z,6.47
2023-05-10T00:32:33.274Z,6.35
2023-05-10T00:35:00.184Z,6.65
2023-05-10T00:37:27.093Z,6.05
2023-05-10T00:39:54.234Z,5.57
2023-05-10T00:42:21.124Z,6.20
2023-05-10T00:44:48.040Z,5.38
2023-05-10T00:47:15.191Z,5.28
2023-05-10T00:49:42.751Z,5.30
2023-05-10T00:52:10.802Z,6.00
2023-05-10T00:54:37.737Z,5.90
2023-05-10T00:57:04.834Z,5.85
2023-05-10T00:59:31.860Z,4.90
2023-05-10T01:01:59.632Z,5.30
2023-05-10T01:04:26.780Z,4.90
2023-05-10T01:06:54.698Z,4.68
2023-05-10T01:09:22.766Z,5.32
2023-05-10T01:11:50.573Z,5.68
2023-05-10T01:14:21.058Z,5.57
2023-05-10T01:16:49.942Z,5.75
2023-05-10T01:19:23.872Z,5.47
2023-05-10T01:22:15.549Z,5.32
2023-05-10T01:28:49.839Z,4.93
2023-05-10T01:31:27.173Z,5.30
2023-05-10T01:34:03.651Z,4.95
2023-05-10T01:36:46.693Z,5.35
2023-05-10T01:39:21.474Z,5.68
2023-05-10T01:42:05.272Z,4.65
2023-05-10T01:44:56.664Z,5.20
2023-05-10T01:47:32.568Z,5.70
2023-05-10T01:50:04.045Z,5.85
2023-05-10T01:52:38.891Z,5.07
2023-05-10T01:55:17.906Z,6.35
2023-05-10T01:57:47.455Z,4.97
2023-05-10T02:00:17.332Z,5.43
2023-05-10T02:02:47.619Z,4.88
2023-05-10T02:05:16.294Z,5.60
2023-05-10T02:07:44.352Z,6.05
2023-05-10T02:10:12.473Z,4.88
2023-05-10T02:12:43.136Z,5.65
2023-05-10T02:15:13.095Z,6.13
2023-05-10T02:17:41.264Z,6.63
2023-05-10T02:20:09.500Z,6.97
2023-05-10T02:22:37.999Z,6.93
2023-05-10T02:25:05.564Z,5.10
2023-05-10T02:27:32.894Z,6.00
2023-05-10T02:30:00.330Z,4.97
2023-05-10T02:32:28.697Z,4.65
2023-05-10T02:34:56.613Z,5.88
2023-05-10T02:37:24.969Z,4.63
2023-05-10T02:39:54.769Z,5.18
2023-05-10T02:42:27.823Z,4.25
2023-05-10T02:45:02.017Z,4.72
2023-05-10T02:47:30.231Z,4.70
2023-05-10T02:49:57.175Z,4.63
2023-05-10T02:52:30.692Z,4.85
2023-05-10T02:55:01.773Z,4.68
2023-05-10T02:57:35.084Z,4.70
2023-05-10T03:00:04.294Z,4.53
2023-05-10T03:02:31.956Z,4.40
2023-05-10T03:04:59.210Z,4.75
2023-05-10T03:07:26.520Z,4.32
2023-05-10T03:09:53.532Z,4.35
2023-05-10T03:12:31.260Z,4.40
2023-05-10T03:15:37.555Z,3.75
2023-05-10T03:18:10.502Z,4.45
2023-05-10T03:20:43.529Z,4.60
2023-05-10T03:23:25.776Z,4.18
2023-05-10T03:25:53.882Z,4.35
2023-05-10T03:28:22.139Z,4.35
2023-05-10T03:30:50.031Z,3.53
2023-05-10T03:33:16.940Z,5.10
2023-05-10T03:35:45.129Z,3.88
2023-05-10T03:38:12.146Z,4.40
2023-05-10T03:40:39.153Z,4.32
2023-05-10T03:43:06.191Z,4.65
2023-05-10T03:45:33.171Z,4.47
2023-05-10T03:48:00.076Z,3.97
2023-05-10T03:50:27.294Z,4.10
2023-05-10T03:52:54.875Z,4.35
2023-05-10T03:55:21.941Z,4.15
2023-05-10T03:57:50.488Z,4.68
2023-05-10T04:00:17.792Z,4.85
2023-05-10T04:02:47.301Z,5.18
2023-05-10T04:05:14.180Z,4.00
2023-05-10T04:07:41.124Z,4.65
2023-05-10T04:10:08.652Z,3.92
2023-05-10T04:12:35.505Z,3.88
2023-05-10T04:15:02.641Z,4.07
2023-05-10T04:17:29.581Z,4.40
2023-05-10T04:19:57.226Z,4.55
2023-05-10T04:22:24.190Z,4.00
2023-05-10T04:24:51.023Z,4.57
2023-05-10T04:27:17.856Z,4.55
2023-05-10T04:29:44.730Z,4.97
2023-05-10T04:32:11.628Z,4.35
2023-05-10T04:34:38.744Z,3.88
2023-05-10T04:37:05.806Z,4.03
2023-05-10T04:39:33.236Z,3.85
2023-05-10T04:42:00.126Z,5.10
2023-05-10T04:44:26.956Z,3.90
2023-05-10T04:46:53.803Z,3.78
2023-05-10T04:49:20.947Z,4.40
2023-05-10T04:51:47.902Z,3.90
2023-05-10T04:54:14.763Z,3.88
2023-05-10T04:56:41.901Z,4.40
2023-05-10T04:59:08.910Z,3.95
2023-05-10T05:01:35.794Z,4.40
2023-05-10T05:04:02.933Z,4.93
2023-05-10T05:06:29.848Z,4.95
2023-05-10T05:08:56.712Z,5.18
2023-05-10T05:11:23.593Z,5.28
2023-05-10T05:13:50.377Z,6.10
2023-05-10T05:16:17.840Z,5.28
2023-05-10T05:18:44.815Z,5.03
2023-05-10T05:21:16.320Z,5.32
2023-05-10T05:23:43.162Z,5.38
2023-05-10T05:26:10.580Z,5.35
2023-05-10T05:28:40.861Z,5.80
2023-05-10T05:31:11.650Z,6.22
2023-05-10T05:33:38.734Z,5.53
2023-05-10T05:36:06.746Z,4.80
2023-05-10T05:38:36.696Z,5.47
2023-05-10T05:41:04.048Z,5.18
2023-05-10T05:43:31.101Z,4.75
2023-05-10T05:45:59.084Z,5.75
2023-05-10T05:48:26.180Z,4.60
2023-05-10T05:50:56.838Z,5.35
2023-05-10T05:53:24.382Z,4.55
2023-05-10T05:55:59.529Z,4.60
2023-05-10T05:58:26.994Z,4.72
2023-05-10T06:00:53.953Z,4.65
2023-05-10T06:03:21.601Z,4.45
2023-05-10T06:05:48.610Z,4.60
2023-05-10T06:08:15.615Z,4.95
2023-05-10T06:10:42.595Z,4.63
2023-05-10T06:13:09.617Z,4.13
2023-05-10T06:15:36.687Z,4.75
2023-05-10T06:18:03.649Z,4.63
2023-05-10T06:20:32.502Z,4.90
2023-05-10T06:22:59.899Z,4.05
2023-05-10T06:25:26.946Z,4.45
2023-05-10T06:27:58.215Z,4.70
2023-05-10T06:30:29.217Z,4.78
2023-05-10T06:32:56.810Z,4.00
2023-05-10T06:35:24.070Z,4.10
2023-05-10T06:37:51.781Z,3.67
2023-05-10T06:40:19.314Z,4.32
2023-05-10T06:42:47.293Z,4.40
2023-05-10T06:45:15.859Z,3.90
2023-05-10T06:47:43.129Z,3.58
2023-05-10T06:50:12.460Z,4.05
2023-05-10T06:52:39.924Z,4.05
2023-05-10T06:55:07.599Z,4.30
2023-05-10T06:57:34.683Z,3.60
2023-05-10T07:00:01.766Z,3.80
2023-05-10T07:02:29.471Z,4.28
2023-05-10T07:04:56.463Z,3.10
2023-05-10T07:07:23.363Z,3.35
2023-05-10T07:09:51.017Z,3.58
2023-05-10T07:12:18.353Z,3.78
2023-05-10T07:14:45.412Z,3.50
2023-05-10T07:17:12.605Z,3.45
2023-05-10T07:19:39.503Z,3.65
2023-05-10T07:22:06.347Z,3.47
2023-05-10T07:24:34.153Z,4.07
2023-05-10T07:27:01.235Z,3.95
2023-05-10T07:29:28.144Z,2.72
2023-05-10T07:31:57.894Z,3.40
2023-05-10T07:34:26.056Z,2.90
2023-05-10T07:36:53.468Z,2.97
2023-05-10T07:39:27.693Z,2.97
2023-05-10T07:41:56.152Z,2.83
2023-05-10T07:44:23.392Z,3.17
2023-05-10T07:46:50.487Z,2.45
2023-05-10T07:49:17.578Z,2.85
2023-05-10T07:51:44.692Z,2.50
2023-05-10T07:54:11.726Z,3.08
2023-05-10T07:56:38.668Z,3.42
2023-05-10T07:59:07.383Z,2.75
2023-05-10T08:01:35.809Z,3.50
2023-05-10T08:04:03.445Z,3.17
2023-05-10T08:06:31.037Z,3.20
2023-05-10T08:08:58.368Z,2.75
2023-05-10T08:11:25.799Z,2.60
2023-05-10T08:13:53.089Z,3.42
2023-05-10T08:16:20.533Z,3.30
2023-05-10T08:18:48.771Z,3.05
2023-05-10T08:21:16.616Z,2.60
2023-05-10T08:23:45.117Z,2.78
2023-05-10T08:26:12.476Z,2.65
2023-05-10T08:28:39.555Z,2.67
2023-05-10T08:31:06.696Z,3.35
2023-05-10T08:33:33.868Z,3.95
2023-05-10T08:36:00.961Z,3.25
2023-05-10T08:38:28.295Z,3.45
2023-05-10T08:40:59.933Z,3.50
2023-05-10T08:43:31.292Z,3.17
2023-05-10T08:46:01.731Z,2.97
2023-05-10T08:48:30.837Z,2.80
2023-05-10T08:51:01.684Z,2.75
2023-05-10T08:53:32.105Z,2.97
2023-05-10T08:55:59.027Z,2.75
2023-05-10T08:58:26.469Z,2.88
2023-05-10T09:00:54.005Z,2.50
2023-05-10T09:03:20.969Z,3.53
2023-05-10T09:05:48.588Z,2.65
2023-05-10T09:08:17.407Z,3.10
2023-05-10T09:10:49.262Z,2.10
2023-05-10T09:13:19.555Z,3.08
2023-05-10T09:15:47.025Z,2.13
2023-05-10T09:18:14.446Z,2.45
2023-05-10T09:20:42.121Z,2.45
2023-05-10T09:23:09.082Z,2.55
2023-05-10T09:25:36.652Z,2.53
2023-05-10T09:28:06.876Z,2.40
2023-05-10T09:30:33.733Z,2.72
2023-05-10T09:33:01.120Z,1.73
2023-05-10T09:35:31.170Z,1.90
2023-05-10T09:38:00.788Z,2.13
2023-05-10T09:40:29.989Z,2.47
2023-05-10T09:43:05.421Z,2.42
2023-05-10T09:45:37.738Z,2.50
2023-05-10T09:48:05.785Z,2.10
2023-05-10T09:50:32.751Z,2.42
2023-05-10T09:53:01.956Z,2.00
2023-05-10T09:55:47.348Z,2.03
2023-05-10T09:58:15.368Z,1.85
2023-05-10T10:00:52.564Z,2.03
2023-05-10T10:03:21.446Z,1.92
2023-05-10T10:05:49.539Z,2.25
2023-05-10T10:08:17.759Z,1.85
2023-05-10T10:10:47.494Z,1.90
2023-05-10T10:13:16.184Z,1.95
2023-05-10T10:15:44.501Z,2.20
2023-05-10T10:18:16.238Z,1.55
2023-05-10T10:20:43.545Z,2.05
2023-05-10T10:23:10.749Z,1.85
2023-05-10T10:25:39.446Z,2.00
2023-05-10T10:28:26.158Z,2.10
2023-05-10T10:30:57.632Z,2.13
2023-05-10T10:33:55.555Z,2.00
2023-05-10T10:36:22.565Z,2.00
2023-05-10T10:38:49.362Z,2.10
2023-05-10T10:41:52.849Z,2.40
2023-05-10T10:44:33.106Z,2.10
2023-05-10T10:47:06.875Z,2.25
2023-05-10T10:49:39.023Z,3.15
2023-05-10T10:52:21.719Z,2.67
2023-05-10T10:54:52.586Z,3.03
2023-05-10T10:57:22.779Z,2.38
2023-05-10T10:59:50.128Z,2.80
2023-05-10T11:02:43.140Z,2.67
2023-05-10T11:05:37.973Z,2.85
2023-05-10T11:08:12.341Z,3.05
2023-05-10T11:13:09.334Z,2.65
2023-05-10T11:15:38.392Z,2.90
2023-05-10T11:18:38.405Z,2.67
2023-05-10T11:21:08.332Z,2.85
2023-05-10T11:23:41.378Z,3.40
2023-05-10T11:26:12.502Z,2.88
2023-05-10T11:28:43.998Z,2.53
2023-05-10T11:31:11.312Z,2.92
2023-05-10T11:33:48.594Z,3.10
2023-05-10T11:36:17.221Z,2.85
2023-05-10T11:38:44.187Z,2.97
2023-05-10T11:41:12.554Z,2.72
2023-05-10T11:43:43.541Z,2.55
2023-05-10T11:46:14.790Z,2.90
2023-05-10T11:48:43.257Z,3.50
2023-05-10T11:51:11.646Z,3.05
2023-05-10T11:53:39.151Z,2.47
2023-05-10T11:56:12.497Z,2.28
2023-05-10T11:58:40.519Z,2.83
2023-05-10T12:01:10.018Z,2.47
2023-05-10T12:03:37.767Z,3.00
2023-05-10T12:06:05.172Z,2.20
2023-05-10T12:08:32.224Z,3.67
2023-05-10T12:11:11.411Z,2.60
2023-05-10T12:13:44.381Z,2.92
2023-05-10T12:16:19.286Z,2.42
2023-05-10T12:18:49.538Z,2.60
2023-05-10T12:21:16.762Z,2.53
2023-05-10T12:23:46.190Z,2.10
2023-05-10T12:26:13.170Z,2.60
2023-05-10T12:28:43.196Z,3.00
2023-05-10T12:31:10.113Z,1.90
2023-05-10T12:33:44.979Z,2.13
2023-05-10T12:36:13.343Z,2.30
2023-05-10T12:38:49.111Z,2.47
2023-05-10T12:41:18.788Z,2.63
2023-05-10T12:43:49.403Z,2.55
2023-05-10T12:46:18.607Z,2.50
2023-05-10T12:49:06.836Z,3.22
2023-05-10T12:51:35.845Z,2.40
2023-05-10T12:54:04.068Z,2.15
2023-05-10T12:56:31.010Z,2.50
2023-05-10T12:58:58.125Z,2.50
2023-05-10T13:01:25.222Z,2.22
2023-05-10T13:03:52.126Z,3.05
2023-05-10T13:06:18.961Z,2.72
2023-05-10T13:08:45.944Z,2.25
2023-05-10T13:11:13.054Z,2.30
2023-05-10T13:13:39.880Z,2.10
2023-05-10T13:16:07.231Z,2.10
2023-05-10T13:18:34.115Z,2.95
2023-05-10T13:21:01.080Z,2.70
2023-05-10T13:23:28.127Z,2.63
2023-05-10T13:25:55.219Z,2.25
2023-05-10T13:28:22.161Z,2.40
2023-05-10T13:30:48.986Z,2.03
2023-05-10T13:33:16.082Z,1.48
2023-05-10T13:35:42.953Z,2.20
2023-05-10T13:38:10.347Z,2.35
2023-05-10T13:40:37.197Z,2.95
2023-05-10T13:43:04.092Z,2.92
2023-05-10T13:45:30.912Z,2.33
2023-05-10T13:47:58.114Z,3.25
2023-05-10T13:50:26.529Z,3.55
2023-05-10T13:52:53.336Z,3.45
2023-05-10T13:55:20.473Z,3.25
2023-05-10T13:57:47.401Z,3.20
2023-05-10T14:00:14.557Z,3.10
2023-05-10T14:02:41.579Z,2.78
2023-05-10T14:05:08.888Z,2.85
2023-05-10T14:07:35.856Z,2.90
2023-05-10T14:10:02.706Z,3.50
2023-05-10T14:12:30.054Z,2.63
2023-05-10T14:14:57.038Z,3.42
2023-05-10T14:17:24.118Z,2.50
2023-05-10T14:19:50.989Z,3.00
2023-05-10T14:22:18.045Z,2.38
2023-05-10T14:24:47.715Z,2.65
2023-05-10T14:27:15.104Z,2.40
2023-05-10T14:29:42.318Z,2.90
2023-05-10T14:32:09.227Z,2.65
2023-05-10T14:34:36.087Z,2.38
2023-05-10T14:37:03.037Z,2.05
2023-05-10T14:39:31.126Z,1.95
2023-05-10T14:41:58.022Z,2.03
2023-05-10T14:44:25.200Z,1.60
2023-05-10T14:46:52.142Z,1.75
2023-05-10T14:49:19.062Z,1.52
2023-05-10T14:51:48.027Z,1.77
2023-05-10T14:54:14.910Z,1.70
2023-05-10T14:56:42.606Z,1.33
2023-05-10T14:59:09.721Z,1.80
2023-05-10T15:01:38.807Z,1.80
2023-05-10T15:04:06.167Z,1.73
2023-05-10T15:06:35.074Z,1.80
2023-05-10T15:09:03.837Z,1.80
2023-05-10T15:11:30.956Z,2.15
2023-05-10T15:13:57.845Z,1.85
2023-05-10T15:16:25.093Z,1.88
2023-05-10T15:18:52.305Z,1.73
2023-05-10T15:21:19.301Z,1.50
2023-05-10T15:23:46.172Z,2.00
2023-05-10T15:26:13.155Z,1.40
2023-05-10T15:28:40.055Z,1.65
2023-05-10T15:31:06.961Z,2.00
2023-05-10T15:33:34.113Z,2.60
2023-05-10T15:36:01.101Z,2.15
2023-05-10T15:38:27.926Z,2.28
2023-05-10T15:40:58.961Z,1.58
2023-05-10T15:43:25.978Z,2.28
2023-05-10T15:45:52.880Z,2.40
2023-05-10T15:48:22.194Z,2.33
2023-05-10T15:50:49.148Z,2.17
2023-05-10T15:53:18.547Z,3.05
2023-05-10T15:55:45.541Z,2.63
2023-05-10T15:58:21.308Z,2.70
2023-05-10T16:00:48.314Z,2.20
2023-05-10T16:03:15.229Z,2.80
2023-05-10T16:05:42.056Z,2.20
2023-05-10T16:08:08.949Z,2.33
2023-05-10T16:10:35.810Z,2.67
2023-05-10T16:13:03.952Z,2.75
2023-05-10T16:15:30.871Z,2.78
2023-05-10T16:17:58.099Z,2.72
2023-05-10T16:20:28.507Z,2.55
2023-05-10T16:22:56.150Z,3.53
2023-05-10T16:25:22.997Z,2.83
2023-05-10T16:27:50.987Z,2.97
2023-05-10T16:30:17.827Z,2.95
2023-05-10T16:32:44.688Z,2.85
2023-05-10T16:35:11.620Z,2.55
2023-05-10T16:37:38.854Z,3.05
2023-05-10T16:40:06.487Z,2.67
2023-05-10T16:42:33.866Z,3.42
2023-05-10T16:45:07.707Z,2.70
2023-05-10T16:47:35.470Z,2.90
2023-05-10T16:50:03.395Z,2.20
2023-05-10T16:52:32.368Z,2.95
2023-05-10T16:54:59.372Z,2.78
2023-05-10T16:57:26.353Z,2.72
2023-05-10T16:59:53.720Z,2.03
2023-05-10T17:02:21.339Z,2.15
2023-05-10T17:04:48.676Z,2.40
2023-05-10T17:07:16.071Z,2.35
2023-05-10T17:09:44.090Z,2.30
2023-05-10T17:12:11.210Z,2.08
2023-05-10T17:14:38.622Z,2.60
2023-05-10T17:17:08.680Z,2.75
2023-05-10T17:19:35.526Z,2.80
2023-05-10T17:22:02.494Z,2.58
2023-05-10T17:24:29.795Z,2.70
2023-05-10T17:26:57.492Z,2.30
2023-05-10T17:29:24.417Z,2.65
2023-05-10T17:31:51.362Z,2.90
2023-05-10T17:34:18.222Z,2.88
2023-05-10T17:36:45.184Z,2.47
2023-05-10T17:39:12.130Z,2.20
2023-05-10T17:41:39.024Z,2.22
2023-05-10T17:44:06.452Z,2.45
2023-05-10T17:46:33.620Z,2.20
2023-05-10T17:49:00.597Z,2.10
2023-05-10T17:51:28.889Z,2.55
2023-05-10T17:53:55.816Z,2.47
2023-05-10T17:56:23.223Z,2.75
2023-05-10T17:58:50.535Z,2.80
2023-05-10T18:01:19.025Z,3.08
2023-05-10T18:03:46.372Z,2.42
2023-05-10T18:06:13.316Z,3.22
2023-05-10T18:08:40.610Z,2.50
2023-05-10T18:11:07.546Z,2.60
2023-05-10T18:13:34.400Z,2.40
2023-05-10T18:16:08.907Z,2.03
2023-05-10T18:18:35.879Z,2.92
2023-05-10T18:21:03.904Z,2.30
2023-05-10T18:23:31.317Z,2.45
2023-05-10T18:25:58.372Z,2.67
2023-05-10T18:28:25.540Z,2.30
2023-05-10T18:30:55.231Z,2.08
2023-05-10T18:33:24.485Z,2.95
2023-05-10T18:35:51.626Z,2.60
2023-05-10T18:38:19.363Z,2.78
2023-05-10T18:40:46.476Z,2.25
2023-05-10T18:43:13.628Z,2.33
2023-05-10T18:45:40.520Z,2.97
2023-05-10T18:48:08.055Z,2.80
2023-05-10T18:50:34.963Z,3.63
2023-05-10T18:53:02.105Z,2.60
2023-05-10T18:55:30.127Z,3.20
2023-05-10T18:57:59.158Z,2.83
2023-05-10T19:00:26.216Z,2.70
2023-05-10T19:02:55.856Z,2.88
2023-05-10T19:05:29.640Z,2.45
2023-05-10T19:07:59.192Z,2.67
2023-05-10T19:10:26.142Z,3.00
2023-05-10T19:12:52.981Z,2.72
2023-05-10T19:15:21.712Z,3.15
2023-05-10T19:17:51.589Z,3.13
2023-05-10T19:20:18.624Z,3.22
2023-05-10T19:23:02.193Z,3.40
2023-05-10T19:25:35.383Z,3.42
2023-05-10T19:28:02.641Z,3.92
2023-05-10T19:30:31.577Z,3.70
2023-05-10T19:32:58.487Z,3.78
2023-05-10T19:35:25.722Z,4.15
2023-05-10T19:37:53.213Z,3.85
2023-05-10T19:40:20.089Z,4.22
2023-05-10T19:42:47.071Z,4.10
2023-05-10T19:45:15.681Z,4.30
2023-05-10T19:47:44.352Z,4.10
2023-05-10T19:50:12.657Z,5.35
2023-05-10T19:52:41.215Z,5.18
2023-05-10T19:55:08.873Z,5.53
2023-05-10T19:57:38.581Z,5.47
2023-05-10T20:00:08.105Z,5.22
2023-05-10T20:02:34.917Z,6.05
2023-05-10T20:05:04.352Z,7.63
2023-05-10T20:07:31.730Z,6.05
2023-05-10T20:10:00.061Z,6.45
2023-05-10T20:12:27.337Z,6.93
2023-05-10T20:14:54.276Z,6.75
2023-05-10T20:17:21.101Z,5.38
2023-05-10T20:19:48.058Z,6.35
2023-05-10T20:22:14.965Z,6.65
2023-05-10T20:24:42.138Z,6.57
2023-05-10T20:27:09.151Z,6.35
2023-05-10T20:29:37.825Z,6.10
2023-05-10T20:32:07.334Z,5.70
2023-05-10T20:34:35.245Z,5.75
2023-05-10T20:37:02.087Z,5.78
2023-05-10T20:39:29.839Z,6.43
2023-05-10T20:41:56.756Z,5.57
2023-05-10T20:44:23.691Z,6.53
2023-05-10T20:46:50.542Z,6.15
2023-05-10T20:49:17.671Z,6.20
2023-05-10T20:51:44.566Z,5.30
2023-05-10T20:54:11.435Z,5.85
2023-05-10T20:56:38.411Z,6.35
2023-05-10T20:59:05.281Z,5.72
2023-05-10T21:01:32.181Z,6.75
2023-05-10T21:03:59.056Z,6.63
2023-05-10T21:06:26.328Z,6.20
2023-05-10T21:08:53.337Z,6.97
2023-05-10T21:11:20.818Z,6.45
2023-05-10T21:13:47.761Z,6.07
2023-05-10T21:16:14.724Z,6.95
2023-05-10T21:18:41.650Z,7.20
2023-05-10T21:21:08.896Z,7.03
2023-05-10T21:23:35.780Z,7.20
2023-05-10T21:26:04.172Z,6.97
2023-05-10T21:28:31.174Z,6.15
2023-05-10T21:30:58.002Z,7.00
2023-05-10T21:33:25.197Z,7.05
2023-05-10T21:35:52.546Z,6.88
2023-05-10T21:38:19.371Z,6.78
2023-05-10T21:40:46.512Z,6.63
2023-05-10T21:43:13.349Z,5.97
2023-05-10T21:45:41.157Z,6.75
2023-05-10T21:48:08.024Z,6.65
2023-05-10T21:50:35.048Z,6.53
2023-05-10T21:53:02.540Z,6.47
2023-05-10T21:55:29.420Z,6.95
2023-05-10T21:57:57.860Z,7.10
2023-05-10T22:00:24.707Z,6.47
2023-05-10T22:02:51.723Z,5.63
2023-05-10T22:05:21.308Z,6.85
2023-05-10T22:07:48.214Z,6.93
2023-05-10T22:10:15.369Z,6.75
2023-05-10T22:12:42.392Z,7.20
2023-05-10T22:15:10.842Z,6.25
2023-05-10T22:17:39.920Z,5.63
2023-05-10T22:20:08.464Z,5.95
2023-05-10T22:22:36.607Z,6.32
2023-05-10T22:25:04.193Z,6.97
2023-05-10T22:27:31.023Z,6.20
2023-05-10T22:30:12.112Z,6.32
2023-05-10T22:32:41.265Z,6.60
2023-05-10T22:35:08.663Z,6.18
2023-05-10T22:37:35.490Z,7.25
2023-05-10T22:40:02.388Z,6.70
2023-05-10T22:42:29.763Z,6.28
2023-05-10T22:44:56.625Z,5.97
2023-05-10T22:47:23.486Z,6.93
2023-05-10T22:49:50.336Z,7.20
2023-05-10T22:52:17.236Z,6.63
2023-05-10T22:54:44.314Z,6.60
2023-05-10T22:57:11.601Z,6.57
2023-05-10T22:59:38.751Z,6.60
2023-05-10T23:02:06.107Z,7.18
2023-05-10T23:04:33.003Z,6.93
2023-05-10T23:06:59.918Z,5.95
2023-05-10T23:09:26.874Z,7.13
2023-05-10T23:11:53.909Z,6.22
2023-05-10T23:14:20.728Z,8.48
2023-05-10T23:16:47.606Z,7.32
2023-05-10T23:19:14.433Z,6.22
2023-05-10T23:21:41.307Z,7.38
2023-05-10T23:24:08.790Z,7.55
2023-05-10T23:26:36.391Z,7.90
2023-05-10T23:29:03.330Z,7.25
2023-05-10T23:31:30.405Z,7.78
2023-05-10T23:33:57.447Z,8.07
2023-05-10T23:36:24.371Z,7.82
2023-05-10T23:38:51.195Z,6.78
2023-05-10T23:41:18.209Z,7.25
2023-05-10T23:43:45.034Z,8.20
2023-05-10T23:46:11.900Z,7.68
2023-05-10T23:48:38.893Z,6.72
2023-05-10T23:51:05.800Z,6.97
2023-05-10T23:53:32.830Z,7.32
2023-05-10T23:55:59.992Z,7.47
2023-05-10T23:58:26.850Z,7.78
